sensor_id;sensor_type;location;lat;lon;timestamp;P1;durP1;ratioP1;P2;durP2;ratioP2
61204;SDS011;47068;55.780;37.520;2022-09-13T00:00:33;3.72;;;2.28;;
61204;SDS011;47068;55.780;37.520;2022-09-13T00:02:59;3.15;;;1.70;;
61204;SDS011;47068;55.780;37.520;2022-09-13T00:05:25;4.55;;;1.75;;
61204;SDS011;47068;55.780;37.520;2022-09-13T00:07:51;10.18;;;1.92;;
61204;SDS011;47068;55.780;37.520;2022-09-13T00:10:16;3.53;;;1.83;;
61204;SDS011;47068;55.780;37.520;2022-09-13T00:12:42;3.67;;;1.70;;
61204;SDS011;47068;55.780;37.520;2022-09-13T00:15:07;10.57;;;1.90;;
61204;SDS011;47068;55.780;37.520;2022-09-13T00:19:59;4.20;;;1.55;;
61204;SDS011;47068;55.780;37.520;2022-09-13T00:22:25;4.53;;;1.75;;
61204;SDS011;47068;55.780;37.520;2022-09-13T00:24:51;2.72;;;1.55;;
61204;SDS011;47068;55.780;37.520;2022-09-13T00:27:17;4.15;;;1.98;;
61204;SDS011;47068;55.780;37.520;2022-09-13T00:29:42;5.35;;;1.70;;
61204;SDS011;47068;55.780;37.520;2022-09-13T00:32:08;3.25;;;1.52;;
61204;SDS011;47068;55.780;37.520;2022-09-13T00:34:33;3.57;;;1.70;;
61204;SDS011;47068;55.780;37.520;2022-09-13T00:36:58;6.00;;;1.93;;
61204;SDS011;47068;55.780;37.520;2022-09-13T00:39:24;5.38;;;2.33;;
61204;SDS011;47068;55.780;37.520;2022-09-13T00:41:49;5.00;;;2.30;;
61204;SDS011;47068;55.780;37.520;2022-09-13T00:47:26;3.33;;;1.65;;
61204;SDS011;47068;55.780;37.520;2022-09-13T00:49:57;5.47;;;2.38;;
61204;SDS011;47068;55.780;37.520;2022-09-13T00:52:34;3.95;;;1.75;;
61204;SDS011;47068;55.780;37.520;2022-09-13T00:55:02;5.90;;;2.00;;
61204;SDS011;47068;55.780;37.520;2022-09-13T00:57:35;6.15;;;2.15;;
61204;SDS011;47068;55.780;37.520;2022-09-13T01:02:39;6.57;;;2.25;;
61204;SDS011;47068;55.780;37.520;2022-09-13T01:05:10;4.55;;;2.22;;
61204;SDS011;47068;55.780;37.520;2022-09-13T01:07:36;4.90;;;1.77;;
61204;SDS011;47068;55.780;37.520;2022-09-13T01:10:02;4.63;;;2.05;;
61204;SDS011;47068;55.780;37.520;2022-09-13T01:12:35;4.57;;;2.00;;
61204;SDS011;47068;55.780;37.520;2022-09-13T01:15:08;5.10;;;1.85;;
61204;SDS011;47068;55.780;37.520;2022-09-13T01:17:34;10.45;;;2.35;;
61204;SDS011;47068;55.780;37.520;2022-09-13T01:20:00;8.20;;;2.63;;
61204;SDS011;47068;55.780;37.520;2022-09-13T01:30:35;5.70;;;2.22;;
61204;SDS011;47068;55.780;37.520;2022-09-13T01:36:32;7.13;;;1.95;;
61204;SDS011;47068;55.780;37.520;2022-09-13T01:46:27;5.35;;;2.08;;
61204;SDS011;47068;55.780;37.520;2022-09-13T01:48:55;6.03;;;2.72;;
61204;SDS011;47068;55.780;37.520;2022-09-13T01:51:31;7.38;;;3.38;;
61204;SDS011;47068;55.780;37.520;2022-09-13T01:54:17;4.18;;;1.90;;
61204;SDS011;47068;55.780;37.520;2022-09-13T02:02:17;4.25;;;2.05;;
61204;SDS011;47068;55.780;37.520;2022-09-13T02:04:49;7.07;;;2.55;;
61204;SDS011;47068;55.780;37.520;2022-09-13T02:07:20;5.30;;;2.45;;
61204;SDS011;47068;55.780;37.520;2022-09-13T02:09:53;6.53;;;2.97;;
61204;SDS011;47068;55.780;37.520;2022-09-13T02:12:24;10.93;;;2.20;;
61204;SDS011;47068;55.780;37.520;2022-09-13T02:14:57;6.40;;;2.60;;
61204;SDS011;47068;55.780;37.520;2022-09-13T02:17:36;4.78;;;1.92;;
61204;SDS011;47068;55.780;37.520;2022-09-13T02:20:07;3.63;;;1.65;;
61204;SDS011;47068;55.780;37.520;2022-09-13T02:22:45;6.43;;;2.38;;
61204;SDS011;47068;55.780;37.520;2022-09-13T02:25:15;7.13;;;2.50;;
61204;SDS011;47068;55.780;37.520;2022-09-13T02:27:48;4.20;;;2.13;;
61204;SDS011;47068;55.780;37.520;2022-09-13T02:30:18;7.57;;;2.83;;
61204;SDS011;47068;55.780;37.520;2022-09-13T02:35:16;7.05;;;2.70;;
61204;SDS011;47068;55.780;37.520;2022-09-13T02:37:50;6.47;;;2.53;;
61204;SDS011;47068;55.780;37.520;2022-09-13T02:40:26;5.00;;;2.15;;
61204;SDS011;47068;55.780;37.520;2022-09-13T02:46:04;5.85;;;2.35;;
61204;SDS011;47068;55.780;37.520;2022-09-13T02:49:02;6.28;;;2.20;;
61204;SDS011;47068;55.780;37.520;2022-09-13T02:52:00;3.83;;;2.38;;
61204;SDS011;47068;55.780;37.520;2022-09-13T02:54:41;5.20;;;1.65;;
61204;SDS011;47068;55.780;37.520;2022-09-13T02:57:26;4.15;;;1.80;;
61204;SDS011;47068;55.780;37.520;2022-09-13T02:59:57;5.50;;;2.33;;
61204;SDS011;47068;55.780;37.520;2022-09-13T03:02:24;5.00;;;2.35;;
61204;SDS011;47068;55.780;37.520;2022-09-13T03:04:55;8.35;;;2.95;;
61204;SDS011;47068;55.780;37.520;2022-09-13T03:07:23;6.77;;;2.40;;
61204;SDS011;47068;55.780;37.520;2022-09-13T03:09:52;3.93;;;2.10;;
61204;SDS011;47068;55.780;37.520;2022-09-13T03:17:51;9.02;;;2.60;;
61204;SDS011;47068;55.780;37.520;2022-09-13T03:21:10;4.97;;;2.22;;
61204;SDS011;47068;55.780;37.520;2022-09-13T03:31:17;5.57;;;2.60;;
61204;SDS011;47068;55.780;37.520;2022-09-13T03:33:56;6.22;;;2.55;;
61204;SDS011;47068;55.780;37.520;2022-09-13T03:36:36;3.85;;;2.30;;
61204;SDS011;47068;55.780;37.520;2022-09-13T03:41:39;5.87;;;2.50;;
61204;SDS011;47068;55.780;37.520;2022-09-13T03:44:09;7.60;;;2.50;;
61204;SDS011;47068;55.780;37.520;2022-09-13T03:46:46;6.27;;;2.63;;
61204;SDS011;47068;55.780;37.520;2022-09-13T03:49:15;7.80;;;3.08;;
61204;SDS011;47068;55.780;37.520;2022-09-13T03:51:46;6.20;;;2.70;;
61204;SDS011;47068;55.780;37.520;2022-09-13T03:54:21;5.78;;;2.65;;
61204;SDS011;47068;55.780;37.520;2022-09-13T03:57:07;4.15;;;1.88;;
61204;SDS011;47068;55.780;37.520;2022-09-13T03:59:33;4.10;;;2.17;;
61204;SDS011;47068;55.780;37.520;2022-09-13T04:02:02;6.68;;;3.10;;
61204;SDS011;47068;55.780;37.520;2022-09-13T04:04:28;4.85;;;2.60;;
61204;SDS011;47068;55.780;37.520;2022-09-13T04:06:53;4.60;;;2.03;;
61204;SDS011;47068;55.780;37.520;2022-09-13T04:09:20;7.18;;;2.47;;
61204;SDS011;47068;55.780;37.520;2022-09-13T04:11:46;6.32;;;2.20;;
61204;SDS011;47068;55.780;37.520;2022-09-13T04:14:12;11.50;;;3.13;;
61204;SDS011;47068;55.780;37.520;2022-09-13T04:16:37;5.93;;;2.10;;
61204;SDS011;47068;55.780;37.520;2022-09-13T04:19:03;6.10;;;2.60;;
61204;SDS011;47068;55.780;37.520;2022-09-13T04:21:30;6.55;;;2.25;;
61204;SDS011;47068;55.780;37.520;2022-09-13T04:23:56;5.80;;;2.07;;
61204;SDS011;47068;55.780;37.520;2022-09-13T04:26:21;5.93;;;3.00;;
61204;SDS011;47068;55.780;37.520;2022-09-13T04:28:47;5.30;;;2.83;;
61204;SDS011;47068;55.780;37.520;2022-09-13T04:31:12;6.90;;;3.00;;
61204;SDS011;47068;55.780;37.520;2022-09-13T04:33:37;4.60;;;2.67;;
61204;SDS011;47068;55.780;37.520;2022-09-13T04:36:03;7.53;;;3.35;;
61204;SDS011;47068;55.780;37.520;2022-09-13T04:38:28;7.63;;;3.53;;
61204;SDS011;47068;55.780;37.520;2022-09-13T04:40:55;10.48;;;3.60;;
61204;SDS011;47068;55.780;37.520;2022-09-13T04:43:21;12.80;;;3.83;;
61204;SDS011;47068;55.780;37.520;2022-09-13T04:45:48;6.07;;;2.67;;
61204;SDS011;47068;55.780;37.520;2022-09-13T04:48:14;7.88;;;3.22;;
61204;SDS011;47068;55.780;37.520;2022-09-13T04:50:40;6.45;;;2.45;;
61204;SDS011;47068;55.780;37.520;2022-09-13T04:53:06;12.70;;;2.22;;
61204;SDS011;47068;55.780;37.520;2022-09-13T04:55:31;6.75;;;3.15;;
61204;SDS011;47068;55.780;37.520;2022-09-13T04:57:57;5.83;;;3.53;;
61204;SDS011;47068;55.780;37.520;2022-09-13T05:00:22;5.00;;;2.50;;
61204;SDS011;47068;55.780;37.520;2022-09-13T05:02:54;7.40;;;2.95;;
61204;SDS011;47068;55.780;37.520;2022-09-13T05:05:22;7.45;;;3.58;;
61204;SDS011;47068;55.780;37.520;2022-09-13T05:07:49;7.55;;;3.20;;
61204;SDS011;47068;55.780;37.520;2022-09-13T05:10:18;8.45;;;3.25;;
61204;SDS011;47068;55.780;37.520;2022-09-13T05:12:43;7.05;;;2.78;;
61204;SDS011;47068;55.780;37.520;2022-09-13T05:15:09;8.32;;;2.92;;
61204;SDS011;47068;55.780;37.520;2022-09-13T05:17:36;10.30;;;3.38;;
61204;SDS011;47068;55.780;37.520;2022-09-13T05:20:02;7.70;;;3.28;;
61204;SDS011;47068;55.780;37.520;2022-09-13T05:22:29;10.55;;;3.13;;
61204;SDS011;47068;55.780;37.520;2022-09-13T05:24:55;7.82;;;3.65;;
61204;SDS011;47068;55.780;37.520;2022-09-13T05:27:21;7.07;;;3.53;;
61204;SDS011;47068;55.780;37.520;2022-09-13T05:29:47;9.10;;;2.42;;
61204;SDS011;47068;55.780;37.520;2022-09-13T05:32:12;5.30;;;2.70;;
61204;SDS011;47068;55.780;37.520;2022-09-13T05:34:37;6.45;;;3.30;;
61204;SDS011;47068;55.780;37.520;2022-09-13T05:37:03;7.20;;;3.70;;
61204;SDS011;47068;55.780;37.520;2022-09-13T05:39:29;9.18;;;3.33;;
61204;SDS011;47068;55.780;37.520;2022-09-13T05:41:54;9.57;;;3.88;;
61204;SDS011;47068;55.780;37.520;2022-09-13T05:44:19;6.10;;;3.03;;
61204;SDS011;47068;55.780;37.520;2022-09-13T05:46:45;12.05;;;4.10;;
61204;SDS011;47068;55.780;37.520;2022-09-13T05:49:13;11.73;;;2.85;;
61204;SDS011;47068;55.780;37.520;2022-09-13T05:51:38;5.90;;;3.17;;
61204;SDS011;47068;55.780;37.520;2022-09-13T05:54:04;6.43;;;2.95;;
61204;SDS011;47068;55.780;37.520;2022-09-13T05:56:30;6.60;;;2.95;;
61204;SDS011;47068;55.780;37.520;2022-09-13T05:58:56;10.18;;;4.18;;
61204;SDS011;47068;55.780;37.520;2022-09-13T06:01:26;5.35;;;2.83;;
61204;SDS011;47068;55.780;37.520;2022-09-13T06:03:53;9.50;;;3.67;;
61204;SDS011;47068;55.780;37.520;2022-09-13T06:06:21;7.75;;;3.45;;
61204;SDS011;47068;55.780;37.520;2022-09-13T06:08:50;7.18;;;3.33;;
61204;SDS011;47068;55.780;37.520;2022-09-13T06:11:17;8.48;;;3.55;;
61204;SDS011;47068;55.780;37.520;2022-09-13T06:13:43;10.40;;;2.77;;
61204;SDS011;47068;55.780;37.520;2022-09-13T06:16:09;8.23;;;4.20;;
61204;SDS011;47068;55.780;37.520;2022-09-13T06:18:36;7.80;;;3.22;;
61204;SDS011;47068;55.780;37.520;2022-09-13T06:21:09;10.35;;;4.10;;
61204;SDS011;47068;55.780;37.520;2022-09-13T06:23:36;20.25;;;3.28;;
61204;SDS011;47068;55.780;37.520;2022-09-13T06:28:27;8.60;;;3.22;;
61204;SDS011;47068;55.780;37.520;2022-09-13T06:31:00;7.67;;;3.10;;
61204;SDS011;47068;55.780;37.520;2022-09-13T06:33:30;7.70;;;3.03;;
61204;SDS011;47068;55.780;37.520;2022-09-13T06:36:07;7.28;;;3.50;;
61204;SDS011;47068;55.780;37.520;2022-09-13T06:38:34;7.32;;;3.42;;
61204;SDS011;47068;55.780;37.520;2022-09-13T06:41:01;7.73;;;2.77;;
61204;SDS011;47068;55.780;37.520;2022-09-13T06:43:31;7.57;;;2.80;;
61204;SDS011;47068;55.780;37.520;2022-09-13T06:45:58;9.32;;;3.42;;
61204;SDS011;47068;55.780;37.520;2022-09-13T06:48:25;6.50;;;3.05;;
61204;SDS011;47068;55.780;37.520;2022-09-13T06:50:52;6.53;;;3.28;;
61204;SDS011;47068;55.780;37.520;2022-09-13T06:53:17;10.70;;;3.47;;
61204;SDS011;47068;55.780;37.520;2022-09-13T06:55:43;6.85;;;3.17;;
61204;SDS011;47068;55.780;37.520;2022-09-13T06:58:08;7.37;;;2.83;;
61204;SDS011;47068;55.780;37.520;2022-09-13T07:00:33;5.90;;;2.47;;
61204;SDS011;47068;55.780;37.520;2022-09-13T07:02:59;7.30;;;3.43;;
61204;SDS011;47068;55.780;37.520;2022-09-13T07:05:24;6.80;;;3.13;;
61204;SDS011;47068;55.780;37.520;2022-09-13T07:07:50;11.05;;;4.30;;
61204;SDS011;47068;55.780;37.520;2022-09-13T07:10:15;7.40;;;3.00;;
61204;SDS011;47068;55.780;37.520;2022-09-13T07:12:41;9.00;;;3.47;;
61204;SDS011;47068;55.780;37.520;2022-09-13T07:15:06;11.93;;;3.50;;
61204;SDS011;47068;55.780;37.520;2022-09-13T07:17:32;7.65;;;3.33;;
61204;SDS011;47068;55.780;37.520;2022-09-13T07:19:57;7.43;;;2.80;;
61204;SDS011;47068;55.780;37.520;2022-09-13T07:22:23;5.72;;;2.67;;
61204;SDS011;47068;55.780;37.520;2022-09-13T07:24:51;13.20;;;3.22;;
61204;SDS011;47068;55.780;37.520;2022-09-13T07:27:17;7.35;;;2.83;;
61204;SDS011;47068;55.780;37.520;2022-09-13T07:29:45;9.45;;;2.72;;
61204;SDS011;47068;55.780;37.520;2022-09-13T07:32:10;7.83;;;3.23;;
61204;SDS011;47068;55.780;37.520;2022-09-13T07:34:36;5.30;;;2.38;;
61204;SDS011;47068;55.780;37.520;2022-09-13T07:37:01;8.10;;;2.92;;
61204;SDS011;47068;55.780;37.520;2022-09-13T07:39:27;12.15;;;3.60;;
61204;SDS011;47068;55.780;37.520;2022-09-13T07:41:52;7.55;;;2.90;;
61204;SDS011;47068;55.780;37.520;2022-09-13T07:44:18;9.13;;;3.42;;
61204;SDS011;47068;55.780;37.520;2022-09-13T07:46:43;11.00;;;3.13;;
61204;SDS011;47068;55.780;37.520;2022-09-13T07:49:10;5.43;;;2.35;;
61204;SDS011;47068;55.780;37.520;2022-09-13T07:51:36;6.03;;;2.50;;
61204;SDS011;47068;55.780;37.520;2022-09-13T07:54:04;7.20;;;2.78;;
61204;SDS011;47068;55.780;37.520;2022-09-13T07:56:33;17.25;;;2.72;;
61204;SDS011;47068;55.780;37.520;2022-09-13T07:59:03;7.03;;;3.38;;
61204;SDS011;47068;55.780;37.520;2022-09-13T08:01:33;25.42;;;10.43;;
61204;SDS011;47068;55.780;37.520;2022-09-13T08:04:04;5.90;;;2.97;;
61204;SDS011;47068;55.780;37.520;2022-09-13T08:06:32;10.63;;;2.97;;
61204;SDS011;47068;55.780;37.520;2022-09-13T08:09:04;9.57;;;2.80;;
61204;SDS011;47068;55.780;37.520;2022-09-13T08:11:35;18.13;;;2.85;;
61204;SDS011;47068;55.780;37.520;2022-09-13T08:14:03;9.95;;;3.03;;
61204;SDS011;47068;55.780;37.520;2022-09-13T08:16:30;7.53;;;3.03;;
61204;SDS011;47068;55.780;37.520;2022-09-13T08:18:57;4.78;;;2.22;;
61204;SDS011;47068;55.780;37.520;2022-09-13T08:21:24;8.70;;;2.15;;
61204;SDS011;47068;55.780;37.520;2022-09-13T08:23:54;6.03;;;2.60;;
61204;SDS011;47068;55.780;37.520;2022-09-13T08:26:20;7.97;;;2.70;;
61204;SDS011;47068;55.780;37.520;2022-09-13T08:28:46;4.03;;;1.95;;
61204;SDS011;47068;55.780;37.520;2022-09-13T08:31:13;7.20;;;1.90;;
61204;SDS011;47068;55.780;37.520;2022-09-13T08:33:47;4.15;;;1.80;;
61204;SDS011;47068;55.780;37.520;2022-09-13T08:36:13;5.32;;;1.73;;
61204;SDS011;47068;55.780;37.520;2022-09-13T08:38:49;3.47;;;1.50;;
61204;SDS011;47068;55.780;37.520;2022-09-13T08:46:43;4.45;;;2.08;;
61204;SDS011;47068;55.780;37.520;2022-09-13T08:49:19;8.48;;;2.47;;
61204;SDS011;47068;55.780;37.520;2022-09-13T08:51:48;8.00;;;3.35;;
61204;SDS011;47068;55.780;37.520;2022-09-13T08:54:17;5.03;;;2.60;;
61204;SDS011;47068;55.780;37.520;2022-09-13T08:57:06;4.63;;;2.00;;
61204;SDS011;47068;55.780;37.520;2022-09-13T09:10:27;6.25;;;1.95;;
61204;SDS011;47068;55.780;37.520;2022-09-13T09:15:45;6.70;;;2.03;;
61204;SDS011;47068;55.780;37.520;2022-09-13T09:20:56;6.35;;;1.85;;
61204;SDS011;47068;55.780;37.520;2022-09-13T09:23:25;4.78;;;1.90;;
61204;SDS011;47068;55.780;37.520;2022-09-13T09:25:54;3.25;;;1.50;;
61204;SDS011;47068;55.780;37.520;2022-09-13T09:28:37;2.33;;;1.10;;
61204;SDS011;47068;55.780;37.520;2022-09-13T09:31:03;2.50;;;1.25;;
61204;SDS011;47068;55.780;37.520;2022-09-13T09:36:50;3.83;;;1.23;;
61204;SDS011;47068;55.780;37.520;2022-09-13T09:39:26;6.32;;;1.30;;
61204;SDS011;47068;55.780;37.520;2022-09-13T09:41:57;3.78;;;0.98;;
61204;SDS011;47068;55.780;37.520;2022-09-13T09:44:25;3.22;;;1.42;;
61204;SDS011;47068;55.780;37.520;2022-09-13T09:52:47;6.07;;;1.30;;
61204;SDS011;47068;55.780;37.520;2022-09-13T10:01:03;3.95;;;1.30;;
61204;SDS011;47068;55.780;37.520;2022-09-13T10:03:32;1.85;;;0.75;;
61204;SDS011;47068;55.780;37.520;2022-09-13T10:08:33;5.85;;;1.40;;
61204;SDS011;47068;55.780;37.520;2022-09-13T10:11:00;2.47;;;1.13;;
61204;SDS011;47068;55.780;37.520;2022-09-13T10:13:27;2.88;;;1.10;;
61204;SDS011;47068;55.780;37.520;2022-09-13T10:16:04;4.38;;;1.38;;
61204;SDS011;47068;55.780;37.520;2022-09-13T10:18:32;2.20;;;0.95;;
61204;SDS011;47068;55.780;37.520;2022-09-13T10:23:46;2.38;;;1.00;;
61204;SDS011;47068;55.780;37.520;2022-09-13T10:26:15;2.83;;;1.08;;
61204;SDS011;47068;55.780;37.520;2022-09-13T10:28:55;4.53;;;1.27;;
61204;SDS011;47068;55.780;37.520;2022-09-13T10:31:32;2.53;;;1.10;;
61204;SDS011;47068;55.780;37.520;2022-09-13T10:34:02;5.65;;;1.73;;
61204;SDS011;47068;55.780;37.520;2022-09-13T10:36:34;13.18;;;1.23;;
61204;SDS011;47068;55.780;37.520;2022-09-13T10:39:02;5.43;;;1.35;;
61204;SDS011;47068;55.780;37.520;2022-09-13T10:41:38;2.25;;;1.10;;
61204;SDS011;47068;55.780;37.520;2022-09-13T10:44:21;2.22;;;1.05;;
61204;SDS011;47068;55.780;37.520;2022-09-13T10:46:50;4.22;;;1.02;;
61204;SDS011;47068;55.780;37.520;2022-09-13T10:52:24;4.85;;;1.02;;
61204;SDS011;47068;55.780;37.520;2022-09-13T10:54:51;2.95;;;1.20;;
61204;SDS011;47068;55.780;37.520;2022-09-13T10:57:31;2.38;;;1.05;;
61204;SDS011;47068;55.780;37.520;2022-09-13T11:00:04;2.17;;;0.80;;
61204;SDS011;47068;55.780;37.520;2022-09-13T11:05:08;1.58;;;0.70;;
61204;SDS011;47068;55.780;37.520;2022-09-13T11:12:56;2.90;;;1.10;;
61204;SDS011;47068;55.780;37.520;2022-09-13T11:18:17;2.38;;;1.00;;
61204;SDS011;47068;55.780;37.520;2022-09-13T11:42:36;5.35;;;0.90;;
61204;SDS011;47068;55.780;37.520;2022-09-13T11:45:27;3.13;;;1.33;;
61204;SDS011;47068;55.780;37.520;2022-09-13T11:48:11;6.90;;;1.17;;
61204;SDS011;47068;55.780;37.520;2022-09-13T11:50:57;3.58;;;1.30;;
61204;SDS011;47068;55.780;37.520;2022-09-13T11:56:20;2.22;;;1.00;;
61204;SDS011;47068;55.780;37.520;2022-09-13T11:58:53;4.55;;;0.80;;
61204;SDS011;47068;55.780;37.520;2022-09-13T12:01:37;2.00;;;0.82;;
61204;SDS011;47068;55.780;37.520;2022-09-13T12:04:32;2.30;;;0.90;;
61204;SDS011;47068;55.780;37.520;2022-09-13T12:06:59;1.92;;;0.90;;
61204;SDS011;47068;55.780;37.520;2022-09-13T12:09:29;2.45;;;0.98;;
61204;SDS011;47068;55.780;37.520;2022-09-13T12:12:08;3.20;;;1.30;;
61204;SDS011;47068;55.780;37.520;2022-09-13T12:14:51;1.77;;;0.80;;
61204;SDS011;47068;55.780;37.520;2022-09-13T12:17:26;2.67;;;1.23;;
61204;SDS011;47068;55.780;37.520;2022-09-13T12:19:56;2.97;;;0.93;;
61204;SDS011;47068;55.780;37.520;2022-09-13T12:22:28;2.20;;;1.02;;
61204;SDS011;47068;55.780;37.520;2022-09-13T12:24:58;5.70;;;0.65;;
61204;SDS011;47068;55.780;37.520;2022-09-13T12:27:36;5.15;;;1.23;;
61204;SDS011;47068;55.780;37.520;2022-09-13T12:32:42;5.53;;;1.05;;
61204;SDS011;47068;55.780;37.520;2022-09-13T12:40:57;1.52;;;0.88;;
61204;SDS011;47068;55.780;37.520;2022-09-13T12:52:15;1.95;;;0.95;;
61204;SDS011;47068;55.780;37.520;2022-09-13T13:00:19;1.90;;;0.90;;
61204;SDS011;47068;55.780;37.520;2022-09-13T13:05:20;1.75;;;0.70;;
61204;SDS011;47068;55.780;37.520;2022-09-13T13:07:58;2.85;;;1.23;;
61204;SDS011;47068;55.780;37.520;2022-09-13T13:10:33;1.73;;;0.80;;
61204;SDS011;47068;55.780;37.520;2022-09-13T13:13:21;2.60;;;1.10;;
61204;SDS011;47068;55.780;37.520;2022-09-13T13:15:57;1.98;;;0.80;;
61204;SDS011;47068;55.780;37.520;2022-09-13T13:18:28;3.13;;;1.00;;
61204;SDS011;47068;55.780;37.520;2022-09-13T13:38:52;1.25;;;0.50;;
61204;SDS011;47068;55.780;37.520;2022-09-13T13:44:01;4.78;;;1.10;;
61204;SDS011;47068;55.780;37.520;2022-09-13T13:46:50;3.97;;;1.00;;
61204;SDS011;47068;55.780;37.520;2022-09-13T14:00:05;2.42;;;0.77;;
61204;SDS011;47068;55.780;37.520;2022-09-13T14:05:21;1.10;;;0.60;;
61204;SDS011;47068;55.780;37.520;2022-09-13T14:19:17;4.97;;;0.90;;
61204;SDS011;47068;55.780;37.520;2022-09-13T14:24:50;4.60;;;1.30;;
61204;SDS011;47068;55.780;37.520;2022-09-13T14:27:24;3.28;;;0.75;;
61204;SDS011;47068;55.780;37.520;2022-09-13T14:30:02;1.65;;;0.82;;
61204;SDS011;47068;55.780;37.520;2022-09-13T14:32:38;0.95;;;0.63;;
61204;SDS011;47068;55.780;37.520;2022-09-13T14:35:21;12.05;;;1.38;;
61204;SDS011;47068;55.780;37.520;2022-09-13T14:37:48;2.10;;;1.00;;
61204;SDS011;47068;55.780;37.520;2022-09-13T14:40:18;2.53;;;1.27;;
61204;SDS011;47068;55.780;37.520;2022-09-13T14:42:48;3.40;;;0.77;;
61204;SDS011;47068;55.780;37.520;2022-09-13T14:45:17;1.15;;;0.57;;
61204;SDS011;47068;55.780;37.520;2022-09-13T14:50:25;4.53;;;1.00;;
61204;SDS011;47068;55.780;37.520;2022-09-13T14:53:03;1.40;;;0.73;;
61204;SDS011;47068;55.780;37.520;2022-09-13T14:55:43;4.32;;;0.68;;
61204;SDS011;47068;55.780;37.520;2022-09-13T14:58:18;2.10;;;0.82;;
61204;SDS011;47068;55.780;37.520;2022-09-13T15:03:24;3.20;;;0.75;;
61204;SDS011;47068;55.780;37.520;2022-09-13T15:05:52;2.28;;;1.10;;
61204;SDS011;47068;55.780;37.520;2022-09-13T15:08:25;2.47;;;1.10;;
61204;SDS011;47068;55.780;37.520;2022-09-13T15:10:57;4.05;;;1.55;;
61204;SDS011;47068;55.780;37.520;2022-09-13T15:13:23;2.33;;;1.00;;
61204;SDS011;47068;55.780;37.520;2022-09-13T15:15:49;3.08;;;1.02;;
61204;SDS011;47068;55.780;37.520;2022-09-13T15:21:03;1.55;;;0.65;;
61204;SDS011;47068;55.780;37.520;2022-09-13T15:23:32;1.83;;;0.93;;
61204;SDS011;47068;55.780;37.520;2022-09-13T15:26:21;5.47;;;1.00;;
61204;SDS011;47068;55.780;37.520;2022-09-13T15:28:54;3.25;;;1.00;;
61204;SDS011;47068;55.780;37.520;2022-09-13T15:36:42;3.63;;;1.35;;
61204;SDS011;47068;55.780;37.520;2022-09-13T15:44:04;5.20;;;1.17;;
61204;SDS011;47068;55.780;37.520;2022-09-13T15:46:31;2.47;;;1.30;;
61204;SDS011;47068;55.780;37.520;2022-09-13T15:49:19;2.65;;;1.08;;
61204;SDS011;47068;55.780;37.520;2022-09-13T15:51:54;2.20;;;0.98;;
61204;SDS011;47068;55.780;37.520;2022-09-13T15:54:21;3.35;;;1.20;;
61204;SDS011;47068;55.780;37.520;2022-09-13T15:56:49;2.38;;;1.15;;
61204;SDS011;47068;55.780;37.520;2022-09-13T15:59:19;3.25;;;1.23;;
61204;SDS011;47068;55.780;37.520;2022-09-13T16:01:49;3.03;;;1.10;;
61204;SDS011;47068;55.780;37.520;2022-09-13T16:04:16;1.77;;;0.90;;
61204;SDS011;47068;55.780;37.520;2022-09-13T16:06:42;4.07;;;1.00;;
61204;SDS011;47068;55.780;37.520;2022-09-13T16:11:43;3.10;;;1.15;;
61204;SDS011;47068;55.780;37.520;2022-09-13T16:14:09;2.47;;;0.77;;
61204;SDS011;47068;55.780;37.520;2022-09-13T16:16:35;3.17;;;1.20;;
61204;SDS011;47068;55.780;37.520;2022-09-13T16:19:00;4.77;;;1.40;;
61204;SDS011;47068;55.780;37.520;2022-09-13T16:21:25;3.50;;;1.33;;
61204;SDS011;47068;55.780;37.520;2022-09-13T16:23:51;10.07;;;1.55;;
61204;SDS011;47068;55.780;37.520;2022-09-13T16:26:16;3.47;;;1.08;;
61204;SDS011;47068;55.780;37.520;2022-09-13T16:28:42;2.88;;;1.23;;
61204;SDS011;47068;55.780;37.520;2022-09-13T16:31:07;2.58;;;1.00;;
61204;SDS011;47068;55.780;37.520;2022-09-13T16:33:33;6.18;;;1.48;;
61204;SDS011;47068;55.780;37.520;2022-09-13T16:35:58;4.50;;;1.27;;
61204;SDS011;47068;55.780;37.520;2022-09-13T16:38:24;3.03;;;1.20;;
61204;SDS011;47068;55.780;37.520;2022-09-13T16:40:49;1.77;;;1.00;;
61204;SDS011;47068;55.780;37.520;2022-09-13T16:43:15;3.40;;;1.17;;
61204;SDS011;47068;55.780;37.520;2022-09-13T16:45:40;3.72;;;1.17;;
61204;SDS011;47068;55.780;37.520;2022-09-13T16:50:32;3.58;;;0.82;;
61204;SDS011;47068;55.780;37.520;2022-09-13T16:52:58;3.33;;;1.42;;
61204;SDS011;47068;55.780;37.520;2022-09-13T16:55:23;3.03;;;1.10;;
61204;SDS011;47068;55.780;37.520;2022-09-13T16:57:50;3.83;;;1.45;;
61204;SDS011;47068;55.780;37.520;2022-09-13T17:00:17;3.40;;;1.58;;
61204;SDS011;47068;55.780;37.520;2022-09-13T17:02:44;2.72;;;0.98;;
61204;SDS011;47068;55.780;37.520;2022-09-13T17:05:10;2.25;;;1.15;;
61204;SDS011;47068;55.780;37.520;2022-09-13T17:07:37;2.50;;;0.90;;
61204;SDS011;47068;55.780;37.520;2022-09-13T17:10:04;4.13;;;1.77;;
61204;SDS011;47068;55.780;37.520;2022-09-13T17:12:31;2.78;;;1.02;;
61204;SDS011;47068;55.780;37.520;2022-09-13T17:14:59;3.58;;;1.60;;
61204;SDS011;47068;55.780;37.520;2022-09-13T17:17:25;11.85;;;1.50;;
61204;SDS011;47068;55.780;37.520;2022-09-13T17:19:51;3.42;;;1.60;;
61204;SDS011;47068;55.780;37.520;2022-09-13T17:22:16;9.50;;;1.25;;
61204;SDS011;47068;55.780;37.520;2022-09-13T17:24:42;3.08;;;1.10;;
61204;SDS011;47068;55.780;37.520;2022-09-13T17:27:08;3.67;;;1.27;;
61204;SDS011;47068;55.780;37.520;2022-09-13T17:29:34;1.67;;;0.90;;
61204;SDS011;47068;55.780;37.520;2022-09-13T17:32:01;2.42;;;1.30;;
61204;SDS011;47068;55.780;37.520;2022-09-13T17:34:28;2.00;;;0.88;;
61204;SDS011;47068;55.780;37.520;2022-09-13T17:36:56;2.53;;;1.23;;
61204;SDS011;47068;55.780;37.520;2022-09-13T17:39:21;2.17;;;1.02;;
61204;SDS011;47068;55.780;37.520;2022-09-13T17:41:47;3.67;;;1.75;;
61204;SDS011;47068;55.780;37.520;2022-09-13T17:44:13;3.30;;;1.40;;
61204;SDS011;47068;55.780;37.520;2022-09-13T17:46:40;3.78;;;1.80;;
61204;SDS011;47068;55.780;37.520;2022-09-13T17:49:05;3.60;;;1.25;;
61204;SDS011;47068;55.780;37.520;2022-09-13T17:51:31;2.08;;;0.93;;
61204;SDS011;47068;55.780;37.520;2022-09-13T17:53:58;3.38;;;1.38;;
61204;SDS011;47068;55.780;37.520;2022-09-13T17:56:31;1.95;;;1.13;;
61204;SDS011;47068;55.780;37.520;2022-09-13T17:59:11;1.27;;;0.77;;
61204;SDS011;47068;55.780;37.520;2022-09-13T18:01:42;2.13;;;1.17;;
61204;SDS011;47068;55.780;37.520;2022-09-13T18:04:09;3.22;;;1.38;;
61204;SDS011;47068;55.780;37.520;2022-09-13T18:06:36;2.22;;;0.75;;
61204;SDS011;47068;55.780;37.520;2022-09-13T18:09:06;1.50;;;0.77;;
61204;SDS011;47068;55.780;37.520;2022-09-13T18:11:32;2.67;;;1.08;;
61204;SDS011;47068;55.780;37.520;2022-09-13T18:13:58;3.00;;;1.33;;
61204;SDS011;47068;55.780;37.520;2022-09-13T18:16:24;2.75;;;1.10;;
61204;SDS011;47068;55.780;37.520;2022-09-13T18:18:51;4.53;;;1.08;;
61204;SDS011;47068;55.780;37.520;2022-09-13T18:21:18;7.63;;;1.08;;
61204;SDS011;47068;55.780;37.520;2022-09-13T18:23:49;2.97;;;1.50;;
61204;SDS011;47068;55.780;37.520;2022-09-13T18:26:20;4.80;;;1.65;;
61204;SDS011;47068;55.780;37.520;2022-09-13T18:28:52;2.63;;;1.27;;
61204;SDS011;47068;55.780;37.520;2022-09-13T18:31:21;3.88;;;1.75;;
61204;SDS011;47068;55.780;37.520;2022-09-13T18:33:52;4.57;;;1.25;;
61204;SDS011;47068;55.780;37.520;2022-09-13T18:36:19;2.92;;;1.23;;
61204;SDS011;47068;55.780;37.520;2022-09-13T18:38:46;2.22;;;0.70;;
61204;SDS011;47068;55.780;37.520;2022-09-13T18:41:14;3.42;;;1.25;;